Albany, IN

9:00 PM EST on November 22, 2014 (GMT -0500)
Delaware County-Johnson | Change Station
CLOSE
Current Station
Airport
Location: Muncie,
Elevation: 938 ft
Nearby Weather Stations

Elev 938 ft 40.23 °N, 85.39 °W | Updated 1 hour ago

Overcast
Overcast
53 °F
Feels Like 53 °F
N
10
Wind Variable Wind from SSW

Today
High -- | Low -- °F
--% Chance of Precip.
Yesterday
High -- | Low -- °F
Precip. -- in
7:34 AM 5:19 PM
New Moon, 0% visible
Pressure 30.01 in
Visibility 10.0 miles
Clouds Overcast 4000 ft
Dew Point 41 °F
Humidity 64%
Rainfall 0.04 in
Snow Depth Not available.
UV 0 out of 12
Pollen .10 out of 12
Air Quality Not available.
Flu Activity Not available.
METAR KMIE 230053Z 20009KT 10SM OVC040 12/05 A3001 RMK AO2 SLP161 T01170050

More Conditions Fewer Conditions

Pressure 30.01 in
Visibility 10.0 miles
Clouds Overcast 4000 ft
Dew Point 41 °F
Humidity 64%
Rainfall 0.04 in
Snow Depth Not available.
UV 0 out of 12
Pollen .10 out of 12
Air Quality Not available.
Flu Activity Not available.
METAR KMIE 230053Z 20009KT 10SM OVC040 12/05 A3001 RMK AO2 SLP161 T01170050

More Conditions Fewer Conditions

10-Day Weather Forecast

Almanac

Astronomy

Nov. 22, 2014 Rise Set
Actual Time
Civil Twilight
Nautical Twilight
Astronomical Twilight
Moon
Length of Visible Light
Length of Day
Tomorrow will be .
, % of the Moon is Illuminated

Today's Extremes

State Highs State Lows

Community

WunderPhotos

Upload Photos

1,772,969 photos uploaded!

WunderBlogs® & News

Nearby

Air Quality

  Air Quality AQ Index Pollutant
Not available.

Snow Depth

Station Depth Elevation

Earthquake Activity

City Distance Mag. Time & Date
Minimum magnitude displayed is 2.5.

Coastal Water Temperatures

Place Temperature

Nearby Weather Stations